createdAt,value
2022-10-13T00:00:43.930Z,5.10
2022-10-13T00:03:11.431Z,3.72
2022-10-13T00:05:47.564Z,4.57
2022-10-13T00:08:18.969Z,4.55
2022-10-13T00:10:47.337Z,3.53
2022-10-13T00:13:15.225Z,4.40
2022-10-13T00:15:44.846Z,4.32
2022-10-13T00:18:11.618Z,3.88
2022-10-13T00:20:46.417Z,3.90
2022-10-13T00:23:16.360Z,4.43
2022-10-13T00:25:45.014Z,3.78
2022-10-13T00:28:12.324Z,4.30
2022-10-13T00:30:39.635Z,4.40
2022-10-13T00:33:06.689Z,4.50
2022-10-13T00:35:34.196Z,4.55
2022-10-13T00:38:00.974Z,4.28
2022-10-13T00:40:27.746Z,4.20
2022-10-13T00:42:54.511Z,4.40
2022-10-13T00:45:28.186Z,3.40
2022-10-13T00:48:02.160Z,4.03
2022-10-13T00:50:37.547Z,4.00
2022-10-13T00:53:05.846Z,4.38
2022-10-13T00:55:36.419Z,3.80
2022-10-13T00:58:06.276Z,4.03
2022-10-13T01:00:34.628Z,4.88
2022-10-13T01:03:04.800Z,4.80
2022-10-13T01:05:31.554Z,3.67
2022-10-13T01:07:59.439Z,4.38
2022-10-13T01:11:04.540Z,3.58
2022-10-13T01:13:50.955Z,3.60
2022-10-13T01:16:20.436Z,4.13
2022-10-13T01:19:01.472Z,3.88
2022-10-13T01:21:47.447Z,3.88
2022-10-13T01:24:41.508Z,3.22
2022-10-13T01:27:19.650Z,4.13
2022-10-13T01:30:23.561Z,3.80
2022-10-13T01:32:58.729Z,4.40
2022-10-13T01:35:31.927Z,4.20
2022-10-13T01:38:07.533Z,4.35
2022-10-13T01:40:59.355Z,4.18
2022-10-13T01:43:36.476Z,4.38
2022-10-13T01:46:13.763Z,3.60
2022-10-13T01:48:44.067Z,3.92
2022-10-13T01:51:16.400Z,3.67
2022-10-13T01:53:45.087Z,4.07
2022-10-13T01:56:12.121Z,2.90
2022-10-13T01:58:39.408Z,4.15
2022-10-13T02:01:13.416Z,3.42
2022-10-13T02:04:05.048Z,4.63
2022-10-13T02:06:41.904Z,5.07
2022-10-13T02:09:21.495Z,4.15
2022-10-13T02:11:57.377Z,3.80
2022-10-13T02:14:30.436Z,4.45
2022-10-13T02:17:02.682Z,4.75
2022-10-13T02:19:30.855Z,4.85
2022-10-13T02:21:58.840Z,4.30
2022-10-13T02:24:26.097Z,4.53
2022-10-13T02:26:53.795Z,4.28
2022-10-13T02:29:21.537Z,3.63
2022-10-13T02:31:48.355Z,3.90
2022-10-13T02:34:15.753Z,4.70
2022-10-13T02:36:42.561Z,4.30
2022-10-13T02:39:10.812Z,4.28
2022-10-13T02:41:38.079Z,4.30
2022-10-13T02:44:05.928Z,4.40
2022-10-13T02:46:32.859Z,4.05
2022-10-13T02:48:59.620Z,4.32
2022-10-13T02:51:26.653Z,4.38
2022-10-13T02:53:53.445Z,4.75
2022-10-13T02:56:20.259Z,4.38
2022-10-13T02:58:47.051Z,4.78
2022-10-13T03:01:15.843Z,4.47
2022-10-13T03:03:43.377Z,3.65
2022-10-13T03:06:10.272Z,4.43
2022-10-13T03:08:37.047Z,4.70
2022-10-13T03:11:03.864Z,5.53
2022-10-13T03:13:30.716Z,5.97
2022-10-13T03:15:57.547Z,5.25
2022-10-13T03:18:24.525Z,4.80
2022-10-13T03:21:03.740Z,4.80
2022-10-13T03:23:31.843Z,4.80
2022-10-13T03:25:59.035Z,4.70
2022-10-13T03:28:25.858Z,4.57
2022-10-13T03:31:07.917Z,4.88
2022-10-13T03:33:34.971Z,5.38
2022-10-13T03:36:04.063Z,4.95
2022-10-13T03:38:32.285Z,4.05
2022-10-13T03:41:07.411Z,4.55
2022-10-13T03:43:35.025Z,4.43
2022-10-13T03:46:02.956Z,5.15
2022-10-13T03:48:29.880Z,5.13
2022-10-13T03:50:56.878Z,4.72
2022-10-13T03:53:24.495Z,4.07
2022-10-13T03:55:53.356Z,3.85
2022-10-13T03:58:20.976Z,4.70
2022-10-13T04:00:48.228Z,4.85
2022-10-13T04:03:15.598Z,4.57
2022-10-13T04:05:42.799Z,3.88
2022-10-13T04:08:10.079Z,4.30
2022-10-13T04:10:37.023Z,4.60
2022-10-13T04:13:04.051Z,4.80
2022-10-13T04:15:31.119Z,4.68
2022-10-13T04:17:57.896Z,4.70
2022-10-13T04:20:24.730Z,4.05
2022-10-13T04:22:51.913Z,4.13
2022-10-13T04:25:18.851Z,4.40
2022-10-13T04:27:47.984Z,4.88
2022-10-13T04:30:14.899Z,4.68
2022-10-13T04:32:41.659Z,4.95
2022-10-13T04:35:08.548Z,4.78
2022-10-13T04:37:35.316Z,4.78
2022-10-13T04:40:02.213Z,4.55
2022-10-13T04:42:29.290Z,5.40
2022-10-13T04:44:56.038Z,4.35
2022-10-13T04:47:22.773Z,4.57
2022-10-13T04:49:49.872Z,4.28
2022-10-13T04:52:16.811Z,5.03
2022-10-13T04:54:43.711Z,4.93
2022-10-13T04:57:10.467Z,5.18
2022-10-13T04:59:37.576Z,5.35
2022-10-13T05:02:04.428Z,4.68
2022-10-13T05:04:31.201Z,5.10
2022-10-13T05:07:17.841Z,5.32
2022-10-13T05:09:44.853Z,4.72
2022-10-13T05:12:11.835Z,4.78
2022-10-13T05:14:38.701Z,5.85
2022-10-13T05:17:05.488Z,6.00
2022-10-13T05:19:32.256Z,4.97
2022-10-13T05:21:59.084Z,6.35
2022-10-13T05:24:36.526Z,5.43
2022-10-13T05:27:09.400Z,5.60
2022-10-13T05:29:36.746Z,5.43
2022-10-13T05:32:04.444Z,4.70
2022-10-13T05:34:32.603Z,4.50
2022-10-13T05:37:00.351Z,5.05
2022-10-13T05:39:27.249Z,4.65
2022-10-13T05:41:54.082Z,5.10
2022-10-13T05:44:21.713Z,4.90
2022-10-13T05:46:48.623Z,4.82
2022-10-13T05:49:15.867Z,5.30
2022-10-13T05:51:48.866Z,4.70
2022-10-13T05:54:31.470Z,4.70
2022-10-13T05:57:30.839Z,4.60
2022-10-13T06:00:01.932Z,4.63
2022-10-13T06:02:35.046Z,5.20
2022-10-13T06:05:04.460Z,5.47
2022-10-13T06:07:31.899Z,5.10
2022-10-13T06:09:59.302Z,4.55
2022-10-13T06:12:26.091Z,6.93
2022-10-13T06:14:53.092Z,4.25
2022-10-13T06:17:19.885Z,4.72
2022-10-13T06:19:46.790Z,4.03
2022-10-13T06:22:13.631Z,4.60
2022-10-13T06:24:40.431Z,5.63
2022-10-13T06:27:07.317Z,4.32
2022-10-13T06:29:34.139Z,4.45
2022-10-13T06:32:00.948Z,4.43
2022-10-13T06:34:27.876Z,4.25
2022-10-13T06:36:54.726Z,5.13
2022-10-13T06:39:21.636Z,5.80
2022-10-13T06:41:49.635Z,4.72
2022-10-13T06:44:16.497Z,5.20
2022-10-13T06:46:43.243Z,4.68
2022-10-13T06:49:10.386Z,4.88
2022-10-13T06:51:37.410Z,5.40
2022-10-13T06:54:04.287Z,6.68
2022-10-13T06:56:31.186Z,5.28
2022-10-13T06:58:58.014Z,5.63
2022-10-13T07:01:24.780Z,5.88
2022-10-13T07:03:52.101Z,6.65
2022-10-13T07:06:19.072Z,7.90
2022-10-13T07:08:45.850Z,6.88
2022-10-13T07:11:16.198Z,5.50
2022-10-13T07:13:46.528Z,6.00
2022-10-13T07:16:14.625Z,6.95
2022-10-13T07:18:41.502Z,7.53
2022-10-13T07:21:08.328Z,6.28
2022-10-13T07:23:35.171Z,6.47
2022-10-13T07:26:02.146Z,6.50
2022-10-13T07:28:29.246Z,7.20
2022-10-13T07:30:56.094Z,6.75
2022-10-13T07:33:22.869Z,6.72
2022-10-13T07:35:49.851Z,6.25
2022-10-13T07:38:16.631Z,7.07
2022-10-13T07:40:44.581Z,6.68
2022-10-13T07:43:11.335Z,6.30
2022-10-13T07:45:38.183Z,7.22
2022-10-13T07:48:05.147Z,6.63
2022-10-13T07:50:32.054Z,6.28
2022-10-13T07:52:58.962Z,6.32
2022-10-13T07:55:25.764Z,6.75
2022-10-13T07:57:52.652Z,6.88
2022-10-13T08:00:19.536Z,6.95
2022-10-13T08:02:50.293Z,5.78
2022-10-13T08:05:17.173Z,5.65
2022-10-13T08:07:44.001Z,6.88
2022-10-13T08:10:10.831Z,7.65
2022-10-13T08:12:37.821Z,6.30
2022-10-13T08:15:06.491Z,6.05
2022-10-13T08:17:33.568Z,6.38
2022-10-13T08:20:00.459Z,6.65
2022-10-13T08:22:28.454Z,6.93
2022-10-13T08:24:56.026Z,5.63
2022-10-13T08:27:37.053Z,5.78
2022-10-13T08:30:12.200Z,6.80
2022-10-13T08:32:39.025Z,6.45
2022-10-13T08:35:06.185Z,7.25
2022-10-13T08:37:33.047Z,6.07
2022-10-13T08:40:00.259Z,5.95
2022-10-13T08:42:27.595Z,6.00
2022-10-13T08:48:02.609Z,6.35
2022-10-13T08:50:33.802Z,5.88
2022-10-13T08:53:42.239Z,5.72
2022-10-13T08:56:21.823Z,5.88
2022-10-13T08:58:50.868Z,6.47
2022-10-13T09:01:23.981Z,6.10
2022-10-13T09:03:52.454Z,6.35
2022-10-13T09:06:41.051Z,5.90
2022-10-13T09:09:10.201Z,6.18
2022-10-13T09:11:40.265Z,6.40
2022-10-13T09:14:12.920Z,5.90
2022-10-13T09:16:42.947Z,6.53
2022-10-13T09:19:18.750Z,6.70
2022-10-13T09:21:45.603Z,6.45
2022-10-13T09:24:16.925Z,6.30
2022-10-13T09:26:45.096Z,6.72
2022-10-13T09:29:24.801Z,5.95
2022-10-13T09:32:07.044Z,6.97
2022-10-13T09:34:34.392Z,6.35
2022-10-13T09:37:07.075Z,6.30
2022-10-13T09:39:34.063Z,5.72
2022-10-13T09:42:36.410Z,5.32
2022-10-13T09:45:15.404Z,6.18
2022-10-13T09:47:54.711Z,6.18
2022-10-13T09:50:25.671Z,6.72
2022-10-13T09:52:53.071Z,6.18
2022-10-13T09:55:32.444Z,6.88
2022-10-13T09:58:28.572Z,6.00
2022-10-13T10:00:57.615Z,6.10
2022-10-13T10:03:37.176Z,6.43
2022-10-13T10:06:07.733Z,6.35
2022-10-13T10:09:03.730Z,5.93
2022-10-13T10:11:42.573Z,6.00
2022-10-13T10:14:22.980Z,5.72
2022-10-13T10:17:48.761Z,5.47
2022-10-13T10:20:37.987Z,5.25
2022-10-13T10:23:14.457Z,4.72
2022-10-13T10:25:58.619Z,5.35
2022-10-13T10:28:31.576Z,5.22
2022-10-13T10:31:01.335Z,5.35
2022-10-13T10:33:50.034Z,5.63
2022-10-13T10:36:23.595Z,5.18
2022-10-13T10:39:01.669Z,6.03
2022-10-13T10:41:41.297Z,6.32
2022-10-13T10:44:12.778Z,6.47
2022-10-13T10:47:02.785Z,7.05
2022-10-13T10:49:40.047Z,6.70
2022-10-13T10:52:10.401Z,6.30
2022-10-13T10:55:02.348Z,6.45
2022-10-13T10:57:57.824Z,6.20
2022-10-13T11:00:25.133Z,6.68
2022-10-13T11:03:16.522Z,6.38
2022-10-13T11:06:03.699Z,6.90
2022-10-13T11:08:42.748Z,6.78
2022-10-13T11:11:34.925Z,6.82
2022-10-13T11:14:07.351Z,6.07
2022-10-13T11:16:38.939Z,7.13
2022-10-13T11:19:08.915Z,6.90
2022-10-13T11:21:54.041Z,6.80
2022-10-13T11:24:42.655Z,7.82
2022-10-13T11:27:12.344Z,7.32
2022-10-13T11:29:55.252Z,8.20
2022-10-13T11:32:30.680Z,8.32
2022-10-13T11:35:06.621Z,8.07
2022-10-13T11:38:06.028Z,8.23
2022-10-13T11:40:54.501Z,7.03
2022-10-13T11:43:32.504Z,6.28
2022-10-13T11:46:12.452Z,7.60
2022-10-13T11:48:54.308Z,6.80
2022-10-13T11:51:54.889Z,6.65
2022-10-13T11:54:25.307Z,7.35
2022-10-13T11:56:55.099Z,7.30
2022-10-13T11:59:27.932Z,7.40
2022-10-13T12:02:19.474Z,7.38
2022-10-13T12:04:59.723Z,7.90
2022-10-13T12:07:37.007Z,7.68
2022-10-13T12:10:07.597Z,7.47
2022-10-13T12:12:34.493Z,7.35
2022-10-13T12:15:04.379Z,6.88
2022-10-13T12:17:41.318Z,7.18
2022-10-13T12:20:22.859Z,6.95
2022-10-13T12:22:51.784Z,8.15
2022-10-13T12:25:20.761Z,8.73
2022-10-13T12:27:53.909Z,8.45
2022-10-13T12:30:29.985Z,8.52
2022-10-13T12:32:59.433Z,8.88
2022-10-13T12:35:27.886Z,9.15
2022-10-13T12:37:56.580Z,7.30
2022-10-13T12:40:24.396Z,8.82
2022-10-13T12:42:51.528Z,8.98
2022-10-13T12:45:20.803Z,7.65
2022-10-13T12:47:55.357Z,9.40
2022-10-13T12:53:01.991Z,8.52
2022-10-13T12:55:28.928Z,9.27
2022-10-13T12:57:56.237Z,9.02
2022-10-13T13:00:30.007Z,8.35
2022-10-13T13:02:56.814Z,9.82
2022-10-13T13:05:39.647Z,10.45
2022-10-13T13:08:27.035Z,10.50
2022-10-13T13:11:02.033Z,10.60
2022-10-13T13:13:29.783Z,9.98
2022-10-13T13:16:16.692Z,9.82
2022-10-13T13:18:50.843Z,10.57
2022-10-13T13:21:20.004Z,8.80
2022-10-13T13:23:52.832Z,8.52
2022-10-13T13:26:24.496Z,7.15
2022-10-13T13:28:54.227Z,9.18
2022-10-13T13:31:23.808Z,8.60
2022-10-13T13:33:50.764Z,7.22
2022-10-13T13:36:22.903Z,8.75
2022-10-13T13:38:50.400Z,7.38
2022-10-13T13:41:17.701Z,6.72
2022-10-13T13:43:44.533Z,6.72
2022-10-13T13:46:27.757Z,7.30
2022-10-13T13:48:54.597Z,7.47
2022-10-13T13:51:21.519Z,9.02
2022-10-13T13:53:48.348Z,6.55
2022-10-13T13:56:17.582Z,6.55
2022-10-13T13:58:44.997Z,6.35
2022-10-13T14:01:12.340Z,6.15
2022-10-13T14:03:39.207Z,5.95
2022-10-13T14:06:06.464Z,7.20
2022-10-13T14:08:35.065Z,6.85
2022-10-13T14:11:07.731Z,5.65
2022-10-13T14:13:35.056Z,5.75
2022-10-13T14:16:03.146Z,6.03
2022-10-13T14:18:31.019Z,5.88
2022-10-13T14:20:58.240Z,6.00
2022-10-13T14:23:25.069Z,6.07
2022-10-13T14:25:51.859Z,8.20
2022-10-13T14:28:18.775Z,6.70
2022-10-13T14:30:45.609Z,7.40
2022-10-13T14:33:12.432Z,7.22
2022-10-13T14:35:39.216Z,6.22
2022-10-13T14:38:06.086Z,7.07
2022-10-13T14:40:32.891Z,8.10
2022-10-13T14:42:59.678Z,6.93
2022-10-13T14:45:26.438Z,6.30
2022-10-13T14:47:53.700Z,6.63
2022-10-13T14:50:20.532Z,7.07
2022-10-13T14:52:47.317Z,7.43
2022-10-13T14:55:14.492Z,6.35
2022-10-13T14:57:41.328Z,6.40
2022-10-13T15:00:10.501Z,6.55
2022-10-13T15:02:37.348Z,6.97
2022-10-13T15:05:04.551Z,7.18
2022-10-13T15:07:31.413Z,6.88
2022-10-13T15:10:05.446Z,6.57
2022-10-13T15:12:32.736Z,6.13
2022-10-13T15:14:59.560Z,6.32
2022-10-13T15:17:26.398Z,6.72
2022-10-13T15:19:53.316Z,7.18
2022-10-13T15:22:20.253Z,6.05
2022-10-13T15:24:47.256Z,8.38
2022-10-13T15:27:14.098Z,7.55
2022-10-13T15:29:41.010Z,7.93
2022-10-13T15:32:11.040Z,7.25
2022-10-13T15:34:41.047Z,7.18
2022-10-13T15:37:08.025Z,6.32
2022-10-13T15:39:35.155Z,5.32
2022-10-13T15:42:02.613Z,6.10
2022-10-13T15:44:51.136Z,5.95
2022-10-13T15:47:17.968Z,5.95
2022-10-13T15:49:44.841Z,5.13
2022-10-13T15:52:12.033Z,5.82
2022-10-13T15:54:39.021Z,4.97
2022-10-13T15:57:05.796Z,4.55
2022-10-13T15:59:32.592Z,5.43
2022-10-13T16:01:59.384Z,4.07
2022-10-13T16:04:26.254Z,4.18
2022-10-13T16:06:53.024Z,4.20
2022-10-13T16:09:19.913Z,4.55
2022-10-13T16:11:46.718Z,5.38
2022-10-13T16:14:13.729Z,4.75
2022-10-13T16:16:40.496Z,5.60
2022-10-13T16:19:07.350Z,5.30
2022-10-13T16:21:34.204Z,5.22
2022-10-13T16:24:01.067Z,5.32
2022-10-13T16:26:28.230Z,6.28
2022-10-13T16:28:56.003Z,5.82
2022-10-13T16:31:23.040Z,6.90
2022-10-13T16:33:49.858Z,6.65
2022-10-13T16:36:18.698Z,6.82
2022-10-13T16:38:47.148Z,5.68
2022-10-13T16:41:17.371Z,6.50
2022-10-13T16:43:45.326Z,5.60
2022-10-13T16:46:14.543Z,7.25
2022-10-13T16:48:42.577Z,6.25
2022-10-13T16:51:15.236Z,6.20
2022-10-13T16:53:42.579Z,6.88
2022-10-13T16:56:10.177Z,6.95
2022-10-13T16:58:36.943Z,6.40
2022-10-13T17:01:09.158Z,7.85
2022-10-13T17:03:37.112Z,7.63
2022-10-13T17:06:04.729Z,8.48
2022-10-13T17:08:31.764Z,7.60
2022-10-13T17:11:01.939Z,8.02
2022-10-13T17:13:29.841Z,7.25
2022-10-13T17:15:57.797Z,7.35
2022-10-13T17:18:25.662Z,8.38
2022-10-13T17:20:54.118Z,6.95
2022-10-13T17:23:21.865Z,8.40
2022-10-13T17:25:48.943Z,8.07
2022-10-13T17:28:16.363Z,7.15
2022-10-13T17:30:43.470Z,8.75
2022-10-13T17:33:12.567Z,6.80
2022-10-13T17:35:39.855Z,6.18
2022-10-13T17:38:07.472Z,7.32
2022-10-13T17:40:36.102Z,8.95
2022-10-13T17:43:03.285Z,8.57
2022-10-13T17:45:30.716Z,7.53
2022-10-13T17:47:58.827Z,6.60
2022-10-13T17:50:26.361Z,7.07
2022-10-13T17:52:53.705Z,7.40
2022-10-13T17:55:20.483Z,7.35
2022-10-13T17:57:47.265Z,7.55
2022-10-13T18:00:14.791Z,7.13
2022-10-13T18:02:41.621Z,6.45
2022-10-13T18:05:08.600Z,7.38
2022-10-13T18:07:35.376Z,7.20
2022-10-13T18:10:02.287Z,6.20
2022-10-13T18:12:29.071Z,8.05
2022-10-13T18:14:55.870Z,7.78
2022-10-13T18:17:23.152Z,6.80
2022-10-13T18:19:51.003Z,6.20
2022-10-13T18:22:18.144Z,7.05
2022-10-13T18:24:46.160Z,7.78
2022-10-13T18:27:12.957Z,8.60
2022-10-13T18:29:39.767Z,8.23
2022-10-13T18:32:06.548Z,10.35
2022-10-13T18:34:33.401Z,10.27
2022-10-13T18:37:00.184Z,10.85
2022-10-13T18:39:29.029Z,9.40
2022-10-13T18:41:57.106Z,8.60
2022-10-13T18:44:25.351Z,8.75
2022-10-13T18:46:53.768Z,7.82
2022-10-13T18:49:23.166Z,9.75
2022-10-13T18:51:51.828Z,10.23
2022-10-13T18:54:18.609Z,10.02
2022-10-13T18:56:45.410Z,10.73
2022-10-13T18:59:12.326Z,10.88
2022-10-13T19:01:40.794Z,9.27
2022-10-13T19:04:08.694Z,9.55
2022-10-13T19:06:35.626Z,9.10
2022-10-13T19:09:05.831Z,8.60
2022-10-13T19:11:32.882Z,9.38
2022-10-13T19:14:00.856Z,8.50
2022-10-13T19:16:30.114Z,9.13
2022-10-13T19:18:57.341Z,11.85
2022-10-13T19:21:24.729Z,9.70
2022-10-13T19:23:51.942Z,9.15
2022-10-13T19:26:28.337Z,9.38
2022-10-13T19:29:01.181Z,9.70
2022-10-13T19:31:30.036Z,8.75
2022-10-13T19:33:58.043Z,8.65
2022-10-13T19:36:24.852Z,10.48
2022-10-13T19:38:51.929Z,11.38
2022-10-13T19:41:18.833Z,10.35
2022-10-13T19:43:45.696Z,10.25
2022-10-13T19:46:12.926Z,8.90
2022-10-13T19:48:39.905Z,10.15
2022-10-13T19:51:08.071Z,10.13
2022-10-13T19:53:35.588Z,9.52
2022-10-13T19:56:02.892Z,9.65
2022-10-13T19:58:29.742Z,10.18
2022-10-13T20:01:06.068Z,11.15
2022-10-13T20:03:33.030Z,9.65
2022-10-13T20:06:04.246Z,11.70
2022-10-13T20:08:31.070Z,10.32
2022-10-13T20:10:58.007Z,9.77
2022-10-13T20:13:24.805Z,9.55
2022-10-13T20:15:51.567Z,10.23
2022-10-13T20:18:18.341Z,9.10
2022-10-13T20:20:45.219Z,8.82
2022-10-13T20:23:12.056Z,10.30
2022-10-13T20:25:38.918Z,8.57
2022-10-13T20:28:06.644Z,10.45
2022-10-13T20:30:33.869Z,13.07
2022-10-13T20:33:00.802Z,9.48
2022-10-13T20:35:27.886Z,10.52
2022-10-13T20:37:55.157Z,11.63
2022-10-13T20:40:22.236Z,13.32
2022-10-13T20:42:51.174Z,12.75
2022-10-13T20:45:18.863Z,12.90
2022-10-13T20:47:46.880Z,10.90
2022-10-13T20:50:13.891Z,13.10
2022-10-13T20:52:40.728Z,12.43
2022-10-13T20:55:07.836Z,13.40
2022-10-13T20:57:34.621Z,13.10
2022-10-13T21:00:01.782Z,12.77
2022-10-13T21:02:28.551Z,13.63
2022-10-13T21:04:55.348Z,12.02
2022-10-13T21:07:22.747Z,12.77
2022-10-13T21:09:53.659Z,12.48
2022-10-13T21:12:21.479Z,11.38
2022-10-13T21:14:48.660Z,10.45
2022-10-13T21:17:15.452Z,9.38
2022-10-13T21:19:42.222Z,10.93
2022-10-13T21:22:09.211Z,11.95
2022-10-13T21:24:36.029Z,13.45
2022-10-13T21:27:02.920Z,13.55
2022-10-13T21:29:29.879Z,12.98
2022-10-13T21:31:56.659Z,15.38
2022-10-13T21:34:23.502Z,13.25
2022-10-13T21:36:50.317Z,12.57
2022-10-13T21:39:17.347Z,10.68
2022-10-13T21:41:44.204Z,11.43
2022-10-13T21:44:13.803Z,11.50
2022-10-13T21:46:40.771Z,11.18
2022-10-13T21:49:07.545Z,12.63
2022-10-13T21:51:36.722Z,13.27
2022-10-13T21:54:09.502Z,13.27
2022-10-13T21:56:37.205Z,14.38
2022-10-13T21:59:04.379Z,13.57
2022-10-13T22:01:31.201Z,15.13
2022-10-13T22:03:59.780Z,13.40
2022-10-13T22:06:27.776Z,13.70
2022-10-13T22:08:57.085Z,10.93
2022-10-13T22:11:26.590Z,13.85
2022-10-13T22:13:55.337Z,13.02
2022-10-13T22:16:24.451Z,12.63
2022-10-13T22:18:52.634Z,15.50
2022-10-13T22:21:22.260Z,11.93
2022-10-13T22:23:49.177Z,10.80
2022-10-13T22:26:18.249Z,15.32
2022-10-13T22:28:45.196Z,11.60
2022-10-13T22:31:13.051Z,13.48
2022-10-13T22:33:41.932Z,11.95
2022-10-13T22:36:11.813Z,12.18
2022-10-13T22:38:38.723Z,13.43
2022-10-13T22:41:07.407Z,12.57
2022-10-13T22:43:35.444Z,12.77
2022-10-13T22:46:02.748Z,11.88
2022-10-13T22:48:29.541Z,12.23
2022-10-13T22:50:56.625Z,12.43
2022-10-13T22:53:23.701Z,11.77
2022-10-13T22:55:50.490Z,11.57
2022-10-13T22:58:17.328Z,13.00
2022-10-13T23:00:44.091Z,12.57
2022-10-13T23:03:13.748Z,12.18
2022-10-13T23:05:47.877Z,12.00
2022-10-13T23:08:15.866Z,12.75
2022-10-13T23:10:42.955Z,13.13
2022-10-13T23:13:09.718Z,12.32
2022-10-13T23:15:38.633Z,12.57
2022-10-13T23:18:06.118Z,12.55
2022-10-13T23:20:32.923Z,11.65
2022-10-13T23:22:59.667Z,12.50
2022-10-13T23:25:26.481Z,12.35
2022-10-13T23:27:53.244Z,12.20
2022-10-13T23:30:20.043Z,11.80
2022-10-13T23:32:46.996Z,11.63
2022-10-13T23:35:13.851Z,11.90
2022-10-13T23:37:40.589Z,10.18
2022-10-13T23:40:07.986Z,10.40
2022-10-13T23:42:34.768Z,11.10
2022-10-13T23:45:01.753Z,11.52
2022-10-13T23:47:28.480Z,10.65
2022-10-13T23:49:55.459Z,9.77
2022-10-13T23:52:22.238Z,10.32
2022-10-13T23:54:49.027Z,9.93
2022-10-13T23:57:15.823Z,9.07
2022-10-13T23:59:42.719Z,9.13
